Terminal Aerodrome Forecast
Issued by NWS

Home | Current Version | Previous Version | Text Only | Print | Product List | Glossary On
Versions: 1 2 3 4 5 6 7 8 9 10 11 12 13 14 15 16 17 18 19 20 21 22 23 24
000
FTUS42 TJSJ 291407 AAA
TAFJBQ
TAF AMD
TJBQ 291407Z 2914/3012 05012G17KT P6SM SCT025 SCT050
      TEMPO 2914/2916 5SM SHRA SCT020 BKN030
     FM291630 05012KT P6SM VCTS FEW025CB BKN050
     FM291800 06012G18KT P6SM VCTS SCT022CB BKN040 BKN090
     FM292300 VRB04KT P6SM SCT025=

USA.gov is the U.S. government's official web portal to all federal, state and local government web resources and services.